sensor_id;sensor_type;location;lat;lon;timestamp;pressure;altitude;pressure_sealevel;temperature;humidity
46778;BME280;32536;47.128;8.746;2022-08-01T00:01:25;91964.91;;;22.86;39.19
46778;BME280;32536;47.128;8.746;2022-08-01T00:03:51;91970.09;;;22.84;39.10
46778;BME280;32536;47.128;8.746;2022-08-01T00:06:18;91964.38;;;22.82;39.18
46778;BME280;32536;47.128;8.746;2022-08-01T00:08:45;91966.34;;;22.81;39.24
46778;BME280;32536;47.128;8.746;2022-08-01T00:11:11;91968.59;;;22.83;39.22
46778;BME280;32536;47.128;8.746;2022-08-01T00:13:39;91959.44;;;22.86;39.08
46778;BME280;32536;47.128;8.746;2022-08-01T00:16:06;91973.19;;;22.92;39.03
46778;BME280;32536;47.128;8.746;2022-08-01T00:18:33;91960.56;;;22.94;39.01
46778;BME280;32536;47.128;8.746;2022-08-01T00:21:03;91963.28;;;22.94;39.46
46778;BME280;32536;47.128;8.746;2022-08-01T00:23:30;91960.34;;;22.98;39.30
46778;BME280;32536;47.128;8.746;2022-08-01T00:25:57;91967.13;;;23.02;39.13
46778;BME280;32536;47.128;8.746;2022-08-01T00:28:24;91964.47;;;23.08;39.25
46778;BME280;32536;47.128;8.746;2022-08-01T00:30:51;91963.81;;;23.13;38.92
46778;BME280;32536;47.128;8.746;2022-08-01T00:33:17;91959.44;;;23.22;39.01
46778;BME280;32536;47.128;8.746;2022-08-01T00:35:44;91963.47;;;23.26;38.85
46778;BME280;32536;47.128;8.746;2022-08-01T00:38:11;91963.75;;;23.28;38.90
46778;BME280;32536;47.128;8.746;2022-08-01T00:40:38;91969.78;;;23.32;38.87
46778;BME280;32536;47.128;8.746;2022-08-01T00:43:04;91960.91;;;23.38;39.06
46778;BME280;32536;47.128;8.746;2022-08-01T00:45:31;91956.19;;;23.38;39.23
46778;BME280;32536;47.128;8.746;2022-08-01T00:47:58;91960.91;;;23.38;39.24
46778;BME280;32536;47.128;8.746;2022-08-01T00:50:25;91965.41;;;23.41;39.07
46778;BME280;32536;47.128;8.746;2022-08-01T00:52:53;91955.50;;;23.43;39.20
46778;BME280;32536;47.128;8.746;2022-08-01T00:55:22;91960.22;;;23.43;39.31
46778;BME280;32536;47.128;8.746;2022-08-01T00:57:49;91963.22;;;23.45;39.27
46778;BME280;32536;47.128;8.746;2022-08-01T01:00:16;91963.97;;;23.45;39.37
46778;BME280;32536;47.128;8.746;2022-08-01T01:02:43;91972.91;;;23.46;39.28
46778;BME280;32536;47.128;8.746;2022-08-01T01:05:10;91962.25;;;23.48;39.16
46778;BME280;32536;47.128;8.746;2022-08-01T01:07:48;91968.94;;;23.47;40.00
46778;BME280;32536;47.128;8.746;2022-08-01T01:10:28;91963.00;;;23.48;39.71
46778;BME280;32536;47.128;8.746;2022-08-01T01:13:20;91970.66;;;23.44;40.03
46778;BME280;32536;47.128;8.746;2022-08-01T01:16:01;91965.69;;;23.43;39.46
46778;BME280;32536;47.128;8.746;2022-08-01T01:19:08;91962.66;;;23.41;39.20
46778;BME280;32536;47.128;8.746;2022-08-01T01:21:33;91968.91;;;23.41;39.50
46778;BME280;32536;47.128;8.746;2022-08-01T01:24:37;91968.91;;;23.41;40.77
46778;BME280;32536;47.128;8.746;2022-08-01T01:27:24;91975.81;;;23.37;40.37
46778;BME280;32536;47.128;8.746;2022-08-01T01:30:04;91974.28;;;23.36;39.02
46778;BME280;32536;47.128;8.746;2022-08-01T01:32:36;91974.50;;;23.32;39.69
46778;BME280;32536;47.128;8.746;2022-08-01T01:35:09;91971.97;;;23.28;39.51
46778;BME280;32536;47.128;8.746;2022-08-01T01:37:40;91967.44;;;23.25;39.25
46778;BME280;32536;47.128;8.746;2022-08-01T01:40:10;91967.88;;;23.18;39.74
46778;BME280;32536;47.128;8.746;2022-08-01T01:42:39;91964.53;;;23.14;39.52
46778;BME280;32536;47.128;8.746;2022-08-01T01:45:08;91970.50;;;23.12;39.46
46778;BME280;32536;47.128;8.746;2022-08-01T01:47:36;91969.47;;;23.10;39.93
46778;BME280;32536;47.128;8.746;2022-08-01T01:50:07;91967.66;;;23.07;39.98
46778;BME280;32536;47.128;8.746;2022-08-01T01:52:35;91969.66;;;23.06;39.63
46778;BME280;32536;47.128;8.746;2022-08-01T01:55:06;91962.69;;;23.05;39.85
46778;BME280;32536;47.128;8.746;2022-08-01T01:57:38;91964.88;;;23.01;40.23
46778;BME280;32536;47.128;8.746;2022-08-01T02:00:09;91964.13;;;23.00;39.96
46778;BME280;32536;47.128;8.746;2022-08-01T02:02:38;91970.06;;;22.99;39.85
46778;BME280;32536;47.128;8.746;2022-08-01T02:05:08;91963.84;;;22.98;40.24
46778;BME280;32536;47.128;8.746;2022-08-01T02:07:38;91963.09;;;22.98;40.01
46778;BME280;32536;47.128;8.746;2022-08-01T02:10:06;91963.09;;;22.98;39.91
46778;BME280;32536;47.128;8.746;2022-08-01T02:12:36;91964.78;;;22.95;39.92
46778;BME280;32536;47.128;8.746;2022-08-01T02:15:05;91957.53;;;22.92;39.70
46778;BME280;32536;47.128;8.746;2022-08-01T02:17:37;91961.25;;;22.89;39.89
46778;BME280;32536;47.128;8.746;2022-08-01T02:20:08;91965.38;;;22.84;39.71
46778;BME280;32536;47.128;8.746;2022-08-01T02:22:41;91965.03;;;22.77;40.67
46778;BME280;32536;47.128;8.746;2022-08-01T02:25:21;91972.19;;;22.74;40.91
46778;BME280;32536;47.128;8.746;2022-08-01T02:28:03;91965.69;;;22.71;40.66
46778;BME280;32536;47.128;8.746;2022-08-01T02:30:36;91964.66;;;22.69;40.73
46778;BME280;32536;47.128;8.746;2022-08-01T02:33:10;91969.09;;;22.66;40.61
46778;BME280;32536;47.128;8.746;2022-08-01T02:35:42;91971.09;;;22.66;40.45
46778;BME280;32536;47.128;8.746;2022-08-01T02:38:13;91964.41;;;22.67;40.91
46778;BME280;32536;47.128;8.746;2022-08-01T02:40:43;91960.72;;;22.70;40.35
46778;BME280;32536;47.128;8.746;2022-08-01T02:43:13;91966.75;;;22.74;40.28
46778;BME280;32536;47.128;8.746;2022-08-01T02:45:43;91965.59;;;22.81;41.25
46778;BME280;32536;47.128;8.746;2022-08-01T02:48:14;91971.88;;;22.87;40.28
46778;BME280;32536;47.128;8.746;2022-08-01T02:50:45;91967.19;;;22.88;40.39
46778;BME280;32536;47.128;8.746;2022-08-01T02:53:16;91965.19;;;22.88;40.57
46778;BME280;32536;47.128;8.746;2022-08-01T02:55:46;91970.66;;;22.88;40.12
46778;BME280;32536;47.128;8.746;2022-08-01T02:58:17;91963.88;;;22.83;40.68
46778;BME280;32536;47.128;8.746;2022-08-01T03:00:46;91958.41;;;22.83;40.04
46778;BME280;32536;47.128;8.746;2022-08-01T03:03:14;91964.38;;;22.82;39.87
46778;BME280;32536;47.128;8.746;2022-08-01T03:05:43;91956.38;;;22.78;40.14
46778;BME280;32536;47.128;8.746;2022-08-01T03:08:12;91952.59;;;22.76;40.39
46778;BME280;32536;47.128;8.746;2022-08-01T03:10:43;91961.00;;;22.72;40.64
46778;BME280;32536;47.128;8.746;2022-08-01T03:13:12;91966.94;;;22.70;40.35
46778;BME280;32536;47.128;8.746;2022-08-01T03:15:41;91960.44;;;22.68;41.00
46778;BME280;32536;47.128;8.746;2022-08-01T03:18:10;91959.38;;;22.65;40.48
46778;BME280;32536;47.128;8.746;2022-08-01T03:20:38;91950.94;;;22.63;40.19
46778;BME280;32536;47.128;8.746;2022-08-01T03:23:07;91955.38;;;22.61;40.30
46778;BME280;32536;47.128;8.746;2022-08-01T03:25:39;91961.47;;;22.55;40.94
46778;BME280;32536;47.128;8.746;2022-08-01T03:28:08;91965.91;;;22.53;40.61
46778;BME280;32536;47.128;8.746;2022-08-01T03:30:40;91967.63;;;22.50;40.74
46778;BME280;32536;47.128;8.746;2022-08-01T03:33:07;91965.91;;;22.53;40.82
46778;BME280;32536;47.128;8.746;2022-08-01T03:35:49;91957.72;;;22.53;41.76
46778;BME280;32536;47.128;8.746;2022-08-01T03:38:23;91964.69;;;22.54;41.45
46778;BME280;32536;47.128;8.746;2022-08-01T03:46:06;91961.22;;;22.53;41.31
46778;BME280;32536;47.128;8.746;2022-08-01T03:48:47;91964.34;;;22.46;43.57
46778;BME280;32536;47.128;8.746;2022-08-01T03:51:15;91967.50;;;22.45;41.21
46778;BME280;32536;47.128;8.746;2022-08-01T03:53:45;91966.78;;;22.44;41.02
46778;BME280;32536;47.128;8.746;2022-08-01T03:56:17;91961.50;;;22.41;42.54
46778;BME280;32536;47.128;8.746;2022-08-01T03:59:05;91952.94;;;22.33;43.14
46778;BME280;32536;47.128;8.746;2022-08-01T04:01:33;91961.13;;;22.33;40.95
46778;BME280;32536;47.128;8.746;2022-08-01T04:04:00;91956.88;;;22.32;40.83
46778;BME280;32536;47.128;8.746;2022-08-01T04:06:27;91955.38;;;22.31;41.10
46778;BME280;32536;47.128;8.746;2022-08-01T04:08:54;91950.09;;;22.27;41.20
46778;BME280;32536;47.128;8.746;2022-08-01T04:11:25;91950.66;;;22.16;42.28
46778;BME280;32536;47.128;8.746;2022-08-01T04:13:54;91949.63;;;22.14;41.13
46778;BME280;32536;47.128;8.746;2022-08-01T04:16:22;91952.06;;;22.12;40.96
46778;BME280;32536;47.128;8.746;2022-08-01T04:18:49;91955.75;;;22.09;41.17
46778;BME280;32536;47.128;8.746;2022-08-01T04:21:18;91962.63;;;22.04;41.79
46778;BME280;32536;47.128;8.746;2022-08-01T04:23:49;91951.41;;;22.02;41.74
46778;BME280;32536;47.128;8.746;2022-08-01T04:26:18;91959.31;;;22.00;41.77
46778;BME280;32536;47.128;8.746;2022-08-01T04:28:48;91966.75;;;21.99;41.85
46778;BME280;32536;47.128;8.746;2022-08-01T04:31:17;91958.84;;;22.01;44.44
46778;BME280;32536;47.128;8.746;2022-08-01T04:33:47;91957.63;;;22.02;41.66
46778;BME280;32536;47.128;8.746;2022-08-01T04:36:19;91971.28;;;22.02;42.33
46778;BME280;32536;47.128;8.746;2022-08-01T04:38:51;91972.50;;;22.01;41.96
46778;BME280;32536;47.128;8.746;2022-08-01T04:41:24;91968.72;;;21.99;41.37
46778;BME280;32536;47.128;8.746;2022-08-01T04:43:52;91969.47;;;21.99;41.57
46778;BME280;32536;47.128;8.746;2022-08-01T04:46:21;91968.25;;;22.00;41.46
46778;BME280;32536;47.128;8.746;2022-08-01T04:48:49;91969.03;;;22.01;41.40
46778;BME280;32536;47.128;8.746;2022-08-01T04:51:17;91969.47;;;21.99;42.22
46778;BME280;32536;47.128;8.746;2022-08-01T04:53:48;91970.69;;;21.98;41.87
46778;BME280;32536;47.128;8.746;2022-08-01T04:56:17;91969.47;;;21.99;41.47
46778;BME280;32536;47.128;8.746;2022-08-01T04:59:09;91974.47;;;22.01;43.05
46778;BME280;32536;47.128;8.746;2022-08-01T05:01:55;91974.25;;;22.04;41.68
46778;BME280;32536;47.128;8.746;2022-08-01T05:04:21;91974.47;;;22.01;42.04
46778;BME280;32536;47.128;8.746;2022-08-01T05:06:48;91970.41;;;21.96;41.82
46778;BME280;32536;47.128;8.746;2022-08-01T05:09:15;91974.94;;;21.99;41.63
46778;BME280;32536;47.128;8.746;2022-08-01T05:11:42;91973.22;;;22.02;41.75
46778;BME280;32536;47.128;8.746;2022-08-01T05:14:09;91968.81;;;22.04;41.70
46778;BME280;32536;47.128;8.746;2022-08-01T05:16:36;91973.03;;;22.05;41.80
46778;BME280;32536;47.128;8.746;2022-08-01T05:19:03;91974.38;;;22.10;41.66
46778;BME280;32536;47.128;8.746;2022-08-01T05:21:29;91966.09;;;22.19;41.70
46778;BME280;32536;47.128;8.746;2022-08-01T05:23:56;91969.97;;;22.28;41.63
46778;BME280;32536;47.128;8.746;2022-08-01T05:26:23;91965.63;;;22.36;41.85
46778;BME280;32536;47.128;8.746;2022-08-01T05:28:50;91965.25;;;22.43;41.68
46778;BME280;32536;47.128;8.746;2022-08-01T05:31:17;91964.59;;;22.48;41.71
46778;BME280;32536;47.128;8.746;2022-08-01T05:33:44;91962.91;;;22.51;41.84
46778;BME280;32536;47.128;8.746;2022-08-01T05:36:10;91970.63;;;22.52;42.06
46778;BME280;32536;47.128;8.746;2022-08-01T05:38:37;91966.38;;;22.51;42.04
46778;BME280;32536;47.128;8.746;2022-08-01T05:41:04;91967.81;;;22.47;42.17
46778;BME280;32536;47.128;8.746;2022-08-01T05:43:31;91968.09;;;22.49;42.02
46778;BME280;32536;47.128;8.746;2022-08-01T05:45:57;91966.59;;;22.48;42.30
46778;BME280;32536;47.128;8.746;2022-08-01T05:48:24;91967.81;;;22.47;42.12
46778;BME280;32536;47.128;8.746;2022-08-01T05:50:51;91967.31;;;22.48;41.99
46778;BME280;32536;47.128;8.746;2022-08-01T05:53:18;91974.88;;;22.53;42.15
46778;BME280;32536;47.128;8.746;2022-08-01T05:55:45;91964.41;;;22.52;42.33
46778;BME280;32536;47.128;8.746;2022-08-01T05:58:12;91968.63;;;22.53;42.31
46778;BME280;32536;47.128;8.746;2022-08-01T06:00:39;91970.16;;;22.54;42.25
46778;BME280;32536;47.128;8.746;2022-08-01T06:03:06;91971.94;;;22.57;42.22
46778;BME280;32536;47.128;8.746;2022-08-01T06:05:32;91979.66;;;22.59;42.31
46778;BME280;32536;47.128;8.746;2022-08-01T06:07:59;91972.78;;;22.63;42.28
46778;BME280;32536;47.128;8.746;2022-08-01T06:10:26;91974.84;;;22.68;42.23
46778;BME280;32536;47.128;8.746;2022-08-01T06:12:53;91973.44;;;22.73;42.25
46778;BME280;32536;47.128;8.746;2022-08-01T06:15:20;91978.41;;;22.75;42.44
46778;BME280;32536;47.128;8.746;2022-08-01T06:17:47;91975.19;;;22.76;42.48
46778;BME280;32536;47.128;8.746;2022-08-01T06:20:14;91974.53;;;22.81;42.39
46778;BME280;32536;47.128;8.746;2022-08-01T06:22:41;91979.41;;;22.92;42.38
46778;BME280;32536;47.128;8.746;2022-08-01T06:25:08;91974.09;;;23.03;42.48
46778;BME280;32536;47.128;8.746;2022-08-01T06:27:35;91974.72;;;23.13;42.38
46778;BME280;32536;47.128;8.746;2022-08-01T06:30:03;91981.78;;;23.20;42.35
46778;BME280;32536;47.128;8.746;2022-08-01T06:32:30;91978.44;;;23.31;42.30
46778;BME280;32536;47.128;8.746;2022-08-01T06:34:57;91975.84;;;23.42;42.25
46778;BME280;32536;47.128;8.746;2022-08-01T06:37:24;91978.75;;;23.54;42.26
46778;BME280;32536;47.128;8.746;2022-08-01T06:39:56;91982.34;;;23.65;42.18
46778;BME280;32536;47.128;8.746;2022-08-01T06:42:29;91980.69;;;23.74;42.06
46778;BME280;32536;47.128;8.746;2022-08-01T06:45:08;91976.53;;;23.78;42.30
46778;BME280;32536;47.128;8.746;2022-08-01T06:47:37;91980.59;;;23.89;41.91
46778;BME280;32536;47.128;8.746;2022-08-01T06:50:06;91966.81;;;23.98;42.01
46778;BME280;32536;47.128;8.746;2022-08-01T06:52:35;91972.88;;;24.08;42.00
46778;BME280;32536;47.128;8.746;2022-08-01T06:55:02;91977.72;;;24.19;41.83
46778;BME280;32536;47.128;8.746;2022-08-01T06:57:30;91972.06;;;24.28;41.80
46778;BME280;32536;47.128;8.746;2022-08-01T06:59:57;91967.41;;;24.34;41.85
46778;BME280;32536;47.128;8.746;2022-08-01T07:02:23;91964.16;;;24.36;42.01
46778;BME280;32536;47.128;8.746;2022-08-01T07:04:50;91968.66;;;24.39;41.97
46778;BME280;32536;47.128;8.746;2022-08-01T07:07:17;91966.97;;;24.41;42.06
46778;BME280;32536;47.128;8.746;2022-08-01T07:09:44;91969.22;;;24.43;42.16
46778;BME280;32536;47.128;8.746;2022-08-01T07:12:11;91967.50;;;24.45;42.04
46778;BME280;32536;47.128;8.746;2022-08-01T07:14:37;91964.03;;;24.51;42.16
46778;BME280;32536;47.128;8.746;2022-08-01T07:17:04;91968.34;;;24.57;42.10
46778;BME280;32536;47.128;8.746;2022-08-01T07:19:31;91969.13;;;24.64;42.53
46778;BME280;32536;47.128;8.746;2022-08-01T07:21:58;91968.22;;;24.72;42.42
46778;BME280;32536;47.128;8.746;2022-08-01T07:24:25;91963.31;;;24.82;42.41
46778;BME280;32536;47.128;8.746;2022-08-01T07:26:55;91965.59;;;24.89;42.38
46778;BME280;32536;47.128;8.746;2022-08-01T07:29:26;91960.38;;;24.91;42.38
46778;BME280;32536;47.128;8.746;2022-08-01T07:31:54;91959.41;;;24.94;42.54
46778;BME280;32536;47.128;8.746;2022-08-01T07:34:22;91956.44;;;24.98;42.24
46778;BME280;32536;47.128;8.746;2022-08-01T07:36:51;91955.94;;;25.00;42.06
46778;BME280;32536;47.128;8.746;2022-08-01T07:39:19;91954.75;;;25.06;42.06
46778;BME280;32536;47.128;8.746;2022-08-01T07:41:46;91950.78;;;25.13;41.98
46778;BME280;32536;47.128;8.746;2022-08-01T07:44:13;91946.06;;;25.19;42.22
46778;BME280;32536;47.128;8.746;2022-08-01T07:46:40;91948.63;;;25.29;42.16
46778;BME280;32536;47.128;8.746;2022-08-01T07:49:07;91943.63;;;25.33;42.02
46778;BME280;32536;47.128;8.746;2022-08-01T07:51:34;91948.66;;;25.34;41.88
46778;BME280;32536;47.128;8.746;2022-08-01T07:54:01;91943.97;;;25.40;41.77
46778;BME280;32536;47.128;8.746;2022-08-01T07:56:27;91944.97;;;25.43;41.63
46778;BME280;32536;47.128;8.746;2022-08-01T07:59:20;91950.97;;;25.41;41.79
46778;BME280;32536;47.128;8.746;2022-08-01T08:01:50;91946.22;;;25.42;41.67
46778;BME280;32536;47.128;8.746;2022-08-01T08:04:17;91944.72;;;25.41;41.86
46778;BME280;32536;47.128;8.746;2022-08-01T08:06:44;91945.47;;;25.41;41.57
46778;BME280;32536;47.128;8.746;2022-08-01T08:09:13;91944.47;;;25.45;41.85
46778;BME280;32536;47.128;8.746;2022-08-01T08:11:42;91948.50;;;25.49;41.43
46778;BME280;32536;47.128;8.746;2022-08-01T08:14:10;91942.28;;;25.54;41.45
46778;BME280;32536;47.128;8.746;2022-08-01T08:16:37;91933.81;;;25.58;41.50
46778;BME280;32536;47.128;8.746;2022-08-01T08:19:04;91935.81;;;25.63;41.49
46778;BME280;32536;47.128;8.746;2022-08-01T08:21:31;91930.09;;;25.67;41.47
46778;BME280;32536;47.128;8.746;2022-08-01T08:23:58;91935.59;;;25.72;41.68
46778;BME280;32536;47.128;8.746;2022-08-01T08:26:43;91938.38;;;25.78;41.15
46778;BME280;32536;47.128;8.746;2022-08-01T08:29:11;91937.88;;;25.85;41.37
46778;BME280;32536;47.128;8.746;2022-08-01T08:31:38;91934.41;;;25.91;41.53
46778;BME280;32536;47.128;8.746;2022-08-01T08:34:04;91930.41;;;25.97;41.53
46778;BME280;32536;47.128;8.746;2022-08-01T08:36:31;91931.94;;;26.04;41.17
46778;BME280;32536;47.128;8.746;2022-08-01T08:38:59;91936.97;;;26.11;41.23
46778;BME280;32536;47.128;8.746;2022-08-01T08:41:34;91934.97;;;26.17;40.65
46778;BME280;32536;47.128;8.746;2022-08-01T08:44:06;91936.97;;;26.28;40.94
46778;BME280;32536;47.128;8.746;2022-08-01T08:46:40;91932.22;;;26.40;40.82
46778;BME280;32536;47.128;8.746;2022-08-01T08:49:08;91928.00;;;26.50;40.90
46778;BME280;32536;47.128;8.746;2022-08-01T08:51:38;91933.97;;;26.55;40.76
46778;BME280;32536;47.128;8.746;2022-08-01T08:54:06;91930.47;;;26.65;41.06
46778;BME280;32536;47.128;8.746;2022-08-01T08:56:35;91922.25;;;26.71;40.37
46778;BME280;32536;47.128;8.746;2022-08-01T08:59:26;91935.72;;;26.80;39.99
46778;BME280;32536;47.128;8.746;2022-08-01T09:01:54;91927.72;;;26.99;41.11
46778;BME280;32536;47.128;8.746;2022-08-01T09:04:21;91928.41;;;27.23;40.97
46778;BME280;32536;47.128;8.746;2022-08-01T09:06:49;91924.84;;;27.45;40.54
46778;BME280;32536;47.128;8.746;2022-08-01T09:09:16;91924.03;;;27.61;40.45
46778;BME280;32536;47.128;8.746;2022-08-01T09:11:43;91925.25;;;27.72;40.06
46778;BME280;32536;47.128;8.746;2022-08-01T09:14:18;91914.75;;;27.70;36.73
46778;BME280;32536;47.128;8.746;2022-08-01T09:19:38;91920.63;;;27.38;38.71
46778;BME280;32536;47.128;8.746;2022-08-01T09:22:17;91927.13;;;27.35;38.91
46778;BME280;32536;47.128;8.746;2022-08-01T09:25:02;91916.88;;;27.36;39.03
46778;BME280;32536;47.128;8.746;2022-08-01T09:27:31;91916.59;;;27.39;39.49
46778;BME280;32536;47.128;8.746;2022-08-01T09:33:00;91921.09;;;27.37;39.64
46778;BME280;32536;47.128;8.746;2022-08-01T09:35:34;91930.63;;;27.41;39.25
46778;BME280;32536;47.128;8.746;2022-08-01T09:43:25;91923.00;;;27.64;39.31
46778;BME280;32536;47.128;8.746;2022-08-01T09:45:54;91918.00;;;27.69;39.08
46778;BME280;32536;47.128;8.746;2022-08-01T09:48:21;91912.25;;;27.72;38.93
46778;BME280;32536;47.128;8.746;2022-08-01T09:50:50;91909.47;;;27.72;38.59
46778;BME280;32536;47.128;8.746;2022-08-01T09:53:18;91909.25;;;27.70;38.66
46778;BME280;32536;47.128;8.746;2022-08-01T09:55:45;91902.22;;;27.69;39.03
46778;BME280;32536;47.128;8.746;2022-08-01T09:58:12;91901.97;;;27.67;39.12
46778;BME280;32536;47.128;8.746;2022-08-01T10:00:39;91904.75;;;27.67;38.49
46778;BME280;32536;47.128;8.746;2022-08-01T10:05:47;91903.22;;;27.72;38.71
46778;BME280;32536;47.128;8.746;2022-08-01T10:08:14;91894.69;;;27.75;38.95
46778;BME280;32536;47.128;8.746;2022-08-01T10:10:43;91894.19;;;27.77;37.83
46778;BME280;32536;47.128;8.746;2022-08-01T10:13:34;91897.69;;;27.77;37.92
46778;BME280;32536;47.128;8.746;2022-08-01T10:16:01;91898.66;;;27.86;37.93
46778;BME280;32536;47.128;8.746;2022-08-01T10:18:31;91903.38;;;27.91;37.77
46778;BME280;32536;47.128;8.746;2022-08-01T10:21:02;91897.06;;;27.96;37.84
46778;BME280;32536;47.128;8.746;2022-08-01T10:23:33;91898.56;;;27.97;37.07
46778;BME280;32536;47.128;8.746;2022-08-01T10:26:02;91896.81;;;28.00;37.75
46778;BME280;32536;47.128;8.746;2022-08-01T10:28:31;91900.53;;;28.02;38.14
46778;BME280;32536;47.128;8.746;2022-08-01T10:30:58;91892.53;;;28.04;38.14
46778;BME280;32536;47.128;8.746;2022-08-01T10:33:25;91895.56;;;28.06;38.15
46778;BME280;32536;47.128;8.746;2022-08-01T10:35:52;91889.00;;;28.09;38.16
46778;BME280;32536;47.128;8.746;2022-08-01T10:38:19;91887.78;;;28.05;37.53
46778;BME280;32536;47.128;8.746;2022-08-01T10:40:45;91884.53;;;28.06;37.39
46778;BME280;32536;47.128;8.746;2022-08-01T10:43:13;91880.75;;;28.09;37.56
46778;BME280;32536;47.128;8.746;2022-08-01T10:45:42;91884.72;;;28.14;37.73
46778;BME280;32536;47.128;8.746;2022-08-01T10:48:18;91888.47;;;28.17;37.62
46778;BME280;32536;47.128;8.746;2022-08-01T10:50:59;91879.19;;;28.20;37.65
46778;BME280;32536;47.128;8.746;2022-08-01T10:53:30;91882.91;;;28.22;38.01
46778;BME280;32536;47.128;8.746;2022-08-01T10:56:00;91886.69;;;28.19;38.21
46778;BME280;32536;47.128;8.746;2022-08-01T11:01:22;91885.19;;;28.18;37.84
46778;BME280;32536;47.128;8.746;2022-08-01T11:09:01;91880.03;;;27.98;38.61
46778;BME280;32536;47.128;8.746;2022-08-01T11:12:09;91883.56;;;27.98;38.19
46778;BME280;32536;47.128;8.746;2022-08-01T11:17:36;91868.75;;;28.01;38.00
46778;BME280;32536;47.128;8.746;2022-08-01T11:20:34;91878.75;;;28.04;37.80
46778;BME280;32536;47.128;8.746;2022-08-01T11:38:40;91867.56;;;27.96;38.08
46778;BME280;32536;47.128;8.746;2022-08-01T11:41:25;91863.56;;;27.92;38.03
46778;BME280;32536;47.128;8.746;2022-08-01T11:44:01;91855.63;;;27.83;37.87
46778;BME280;32536;47.128;8.746;2022-08-01T11:52:15;91868.31;;;27.91;36.71
46778;BME280;32536;47.128;8.746;2022-08-01T11:54:46;91866.75;;;28.02;37.42
46778;BME280;32536;47.128;8.746;2022-08-01T11:57:19;91858.72;;;28.09;36.55
46778;BME280;32536;47.128;8.746;2022-08-01T11:59:52;91855.13;;;28.20;36.54
46778;BME280;32536;47.128;8.746;2022-08-01T12:02:26;91858.06;;;28.28;36.27
46778;BME280;32536;47.128;8.746;2022-08-01T12:04:57;91853.25;;;28.34;35.49
46778;BME280;32536;47.128;8.746;2022-08-01T12:07:32;91855.72;;;28.38;36.70
46778;BME280;32536;47.128;8.746;2022-08-01T12:12:35;91856.78;;;28.35;37.01
46778;BME280;32536;47.128;8.746;2022-08-01T12:15:05;91853.50;;;28.36;36.21
46778;BME280;32536;47.128;8.746;2022-08-01T12:17:44;91854.75;;;28.35;34.27
46778;BME280;32536;47.128;8.746;2022-08-01T12:20:19;91847.44;;;28.43;35.90
46778;BME280;32536;47.128;8.746;2022-08-01T12:22:46;91839.34;;;28.51;36.06
46778;BME280;32536;47.128;8.746;2022-08-01T12:25:17;91847.09;;;28.53;35.02
46778;BME280;32536;47.128;8.746;2022-08-01T12:27:46;91842.78;;;28.57;33.43
46778;BME280;32536;47.128;8.746;2022-08-01T12:30:15;91842.00;;;28.63;34.03
46778;BME280;32536;47.128;8.746;2022-08-01T12:32:46;91840.69;;;28.69;35.41
46778;BME280;32536;47.128;8.746;2022-08-01T12:35:15;91838.88;;;28.78;35.56
46778;BME280;32536;47.128;8.746;2022-08-01T12:37:47;91843.56;;;28.83;35.77
46778;BME280;32536;47.128;8.746;2022-08-01T12:42:47;91850.00;;;28.91;34.88
46778;BME280;32536;47.128;8.746;2022-08-01T12:45:32;91843.72;;;28.90;31.43
46778;BME280;32536;47.128;8.746;2022-08-01T12:48:12;91833.63;;;28.99;34.24
46778;BME280;32536;47.128;8.746;2022-08-01T12:50:46;91836.31;;;29.04;34.20
46778;BME280;32536;47.128;8.746;2022-08-01T12:53:14;91842.00;;;29.12;35.27
46778;BME280;32536;47.128;8.746;2022-08-01T12:55:53;91840.69;;;29.19;34.13
46778;BME280;32536;47.128;8.746;2022-08-01T12:58:21;91843.81;;;29.29;35.15
46778;BME280;32536;47.128;8.746;2022-08-01T13:00:49;91843.75;;;29.34;35.26
46778;BME280;32536;47.128;8.746;2022-08-01T13:03:27;91840.19;;;29.39;35.48
46778;BME280;32536;47.128;8.746;2022-08-01T13:05:55;91833.63;;;29.43;35.17
46778;BME280;32536;47.128;8.746;2022-08-01T13:08:32;91833.25;;;29.33;34.97
46778;BME280;32536;47.128;8.746;2022-08-01T13:11:02;91841.16;;;29.17;35.45
46778;BME280;32536;47.128;8.746;2022-08-01T13:13:51;91837.06;;;29.05;35.39
46778;BME280;32536;47.128;8.746;2022-08-01T13:16:24;91836.91;;;28.97;35.52
46778;BME280;32536;47.128;8.746;2022-08-01T13:18:53;91831.72;;;28.88;35.62
46778;BME280;32536;47.128;8.746;2022-08-01T13:21:25;91830.69;;;28.91;35.25
46778;BME280;32536;47.128;8.746;2022-08-01T13:24:09;91825.88;;;28.97;34.63
46778;BME280;32536;47.128;8.746;2022-08-01T13:26:49;91828.78;;;29.05;35.10
46778;BME280;32536;47.128;8.746;2022-08-01T13:29:37;91828.19;;;29.12;33.78
46778;BME280;32536;47.128;8.746;2022-08-01T13:32:16;91832.69;;;29.15;31.81
46778;BME280;32536;47.128;8.746;2022-08-01T13:34:44;91829.06;;;29.26;34.07
46778;BME280;32536;47.128;8.746;2022-08-01T13:37:10;91827.44;;;29.36;32.85
46778;BME280;32536;47.128;8.746;2022-08-01T13:39:37;91831.53;;;29.49;33.62
46778;BME280;32536;47.128;8.746;2022-08-01T13:42:08;91832.88;;;29.61;33.53
46778;BME280;32536;47.128;8.746;2022-08-01T13:44:44;91835.94;;;29.77;33.70
46778;BME280;32536;47.128;8.746;2022-08-01T13:47:11;91834.97;;;29.93;33.86
46778;BME280;32536;47.128;8.746;2022-08-01T13:49:38;91839.25;;;30.08;34.00
46778;BME280;32536;47.128;8.746;2022-08-01T13:52:05;91840.59;;;30.20;33.66
46778;BME280;32536;47.128;8.746;2022-08-01T13:54:32;91840.72;;;30.28;33.04
46778;BME280;32536;47.128;8.746;2022-08-01T13:56:59;91842.88;;;30.35;32.66
46778;BME280;32536;47.128;8.746;2022-08-01T13:59:44;91834.28;;;30.39;28.29
46778;BME280;32536;47.128;8.746;2022-08-01T14:02:11;91837.38;;;30.48;32.60
46778;BME280;32536;47.128;8.746;2022-08-01T14:04:38;91841.47;;;30.61;32.55
46778;BME280;32536;47.128;8.746;2022-08-01T14:07:04;91841.56;;;30.69;33.09
46778;BME280;32536;47.128;8.746;2022-08-01T14:09:31;91833.50;;;30.71;32.85
46778;BME280;32536;47.128;8.746;2022-08-01T14:11:59;91834.75;;;30.70;33.25
46778;BME280;32536;47.128;8.746;2022-08-01T14:14:25;91838.81;;;30.69;32.80